sensor_id;sensor_type;location;lat;lon;timestamp;temperature;humidity
12815;DHT22;6472;52.328;13.070;2023-07-31T00:00:15;14.60;99.90
12815;DHT22;6472;52.328;13.070;2023-07-31T00:02:45;14.60;99.90
12815;DHT22;6472;52.328;13.070;2023-07-31T00:05:13;14.50;99.90
12815;DHT22;6472;52.328;13.070;2023-07-31T00:07:41;14.40;99.90
12815;DHT22;6472;52.328;13.070;2023-07-31T00:10:10;14.30;99.90
12815;DHT22;6472;52.328;13.070;2023-07-31T00:12:38;14.40;99.90
12815;DHT22;6472;52.328;13.070;2023-07-31T00:15:07;14.40;99.90
12815;DHT22;6472;52.328;13.070;2023-07-31T00:17:36;14.40;99.90
12815;DHT22;6472;52.328;13.070;2023-07-31T00:20:06;14.40;99.90
12815;DHT22;6472;52.328;13.070;2023-07-31T00:22:35;14.40;99.90
12815;DHT22;6472;52.328;13.070;2023-07-31T00:25:04;14.40;99.90
12815;DHT22;6472;52.328;13.070;2023-07-31T00:27:33;14.30;99.90
12815;DHT22;6472;52.328;13.070;2023-07-31T00:30:01;14.40;99.90
12815;DHT22;6472;52.328;13.070;2023-07-31T00:32:29;14.40;99.90
12815;DHT22;6472;52.328;13.070;2023-07-31T00:34:57;14.30;99.90
12815;DHT22;6472;52.328;13.070;2023-07-31T00:37:27;14.40;99.90
12815;DHT22;6472;52.328;13.070;2023-07-31T00:39:55;14.40;99.90
12815;DHT22;6472;52.328;13.070;2023-07-31T00:42:24;14.40;99.90
12815;DHT22;6472;52.328;13.070;2023-07-31T00:44:51;14.40;99.90
12815;DHT22;6472;52.328;13.070;2023-07-31T00:47:20;14.40;99.90
12815;DHT22;6472;52.328;13.070;2023-07-31T00:49:48;14.40;99.90
12815;DHT22;6472;52.328;13.070;2023-07-31T00:52:16;14.50;99.90
12815;DHT22;6472;52.328;13.070;2023-07-31T00:54:46;14.50;99.90
12815;DHT22;6472;52.328;13.070;2023-07-31T00:57:14;14.50;99.90
12815;DHT22;6472;52.328;13.070;2023-07-31T00:59:42;14.50;99.90
12815;DHT22;6472;52.328;13.070;2023-07-31T01:02:10;14.50;99.90
12815;DHT22;6472;52.328;13.070;2023-07-31T01:04:39;14.50;99.90
12815;DHT22;6472;52.328;13.070;2023-07-31T01:07:22;14.50;99.90
12815;DHT22;6472;52.328;13.070;2023-07-31T01:10:02;14.40;99.90
12815;DHT22;6472;52.328;13.070;2023-07-31T01:12:31;14.40;99.90
12815;DHT22;6472;52.328;13.070;2023-07-31T01:15:04;14.40;99.90
12815;DHT22;6472;52.328;13.070;2023-07-31T01:17:32;14.40;99.90
12815;DHT22;6472;52.328;13.070;2023-07-31T01:20:03;14.40;99.90
12815;DHT22;6472;52.328;13.070;2023-07-31T01:23:22;14.40;99.90
12815;DHT22;6472;52.328;13.070;2023-07-31T01:26:00;14.40;99.90
12815;DHT22;6472;52.328;13.070;2023-07-31T01:28:37;14.40;99.90
12815;DHT22;6472;52.328;13.070;2023-07-31T01:31:07;14.40;99.90
12815;DHT22;6472;52.328;13.070;2023-07-31T01:33:38;14.40;99.90
12815;DHT22;6472;52.328;13.070;2023-07-31T01:36:06;14.40;99.90
12815;DHT22;6472;52.328;13.070;2023-07-31T01:38:35;14.40;99.90
12815;DHT22;6472;52.328;13.070;2023-07-31T01:41:04;14.40;99.90
12815;DHT22;6472;52.328;13.070;2023-07-31T01:43:32;14.40;99.90
12815;DHT22;6472;52.328;13.070;2023-07-31T01:46:00;14.40;99.90
12815;DHT22;6472;52.328;13.070;2023-07-31T01:48:28;14.50;99.90
12815;DHT22;6472;52.328;13.070;2023-07-31T01:51:02;14.50;99.90
12815;DHT22;6472;52.328;13.070;2023-07-31T01:53:31;14.50;99.90
12815;DHT22;6472;52.328;13.070;2023-07-31T01:55:59;14.50;99.90
12815;DHT22;6472;52.328;13.070;2023-07-31T01:58:29;14.50;99.90
12815;DHT22;6472;52.328;13.070;2023-07-31T02:00:57;14.50;99.90
12815;DHT22;6472;52.328;13.070;2023-07-31T02:03:25;14.50;99.90
12815;DHT22;6472;52.328;13.070;2023-07-31T02:05:54;14.50;99.90
12815;DHT22;6472;52.328;13.070;2023-07-31T02:08:23;14.50;99.90
12815;DHT22;6472;52.328;13.070;2023-07-31T02:10:51;14.40;99.90
12815;DHT22;6472;52.328;13.070;2023-07-31T02:13:19;14.40;99.90
12815;DHT22;6472;52.328;13.070;2023-07-31T02:15:49;14.40;99.90
12815;DHT22;6472;52.328;13.070;2023-07-31T02:18:17;14.40;99.90
12815;DHT22;6472;52.328;13.070;2023-07-31T02:20:49;14.40;99.90
12815;DHT22;6472;52.328;13.070;2023-07-31T02:23:17;14.40;99.90
12815;DHT22;6472;52.328;13.070;2023-07-31T02:25:46;14.40;99.90
12815;DHT22;6472;52.328;13.070;2023-07-31T02:28:14;14.40;99.90
12815;DHT22;6472;52.328;13.070;2023-07-31T02:30:44;14.40;99.90
12815;DHT22;6472;52.328;13.070;2023-07-31T02:33:14;14.40;99.90
12815;DHT22;6472;52.328;13.070;2023-07-31T02:35:42;14.40;99.90
12815;DHT22;6472;52.328;13.070;2023-07-31T02:38:10;14.40;99.90
12815;DHT22;6472;52.328;13.070;2023-07-31T02:40:39;14.40;99.90
12815;DHT22;6472;52.328;13.070;2023-07-31T02:43:08;14.30;99.90
12815;DHT22;6472;52.328;13.070;2023-07-31T02:45:36;14.40;99.90
12815;DHT22;6472;52.328;13.070;2023-07-31T02:48:04;14.40;99.90
12815;DHT22;6472;52.328;13.070;2023-07-31T02:50:34;14.40;99.90
12815;DHT22;6472;52.328;13.070;2023-07-31T02:53:02;14.40;99.90
12815;DHT22;6472;52.328;13.070;2023-07-31T02:55:30;14.40;99.90
12815;DHT22;6472;52.328;13.070;2023-07-31T02:57:58;14.40;99.90
12815;DHT22;6472;52.328;13.070;2023-07-31T03:00:27;14.40;99.90
12815;DHT22;6472;52.328;13.070;2023-07-31T03:02:55;14.40;99.90
12815;DHT22;6472;52.328;13.070;2023-07-31T03:05:23;14.40;99.90
12815;DHT22;6472;52.328;13.070;2023-07-31T03:07:53;14.40;99.90
12815;DHT22;6472;52.328;13.070;2023-07-31T03:10:21;14.40;99.90
12815;DHT22;6472;52.328;13.070;2023-07-31T03:12:49;14.40;99.90
12815;DHT22;6472;52.328;13.070;2023-07-31T03:15:17;14.40;99.90
12815;DHT22;6472;52.328;13.070;2023-07-31T03:17:45;14.40;99.90
12815;DHT22;6472;52.328;13.070;2023-07-31T03:20:13;14.40;99.90
12815;DHT22;6472;52.328;13.070;2023-07-31T03:22:45;14.30;99.90
12815;DHT22;6472;52.328;13.070;2023-07-31T03:25:14;14.40;99.90
12815;DHT22;6472;52.328;13.070;2023-07-31T03:27:42;14.50;99.90
12815;DHT22;6472;52.328;13.070;2023-07-31T03:30:11;14.40;99.90
12815;DHT22;6472;52.328;13.070;2023-07-31T03:32:39;14.40;99.90
12815;DHT22;6472;52.328;13.070;2023-07-31T03:35:07;14.30;99.90
12815;DHT22;6472;52.328;13.070;2023-07-31T03:37:35;14.40;99.90
12815;DHT22;6472;52.328;13.070;2023-07-31T03:40:04;14.40;99.90
12815;DHT22;6472;52.328;13.070;2023-07-31T03:42:33;14.40;99.90
12815;DHT22;6472;52.328;13.070;2023-07-31T03:45:01;14.40;99.90
12815;DHT22;6472;52.328;13.070;2023-07-31T03:47:30;14.40;99.90
12815;DHT22;6472;52.328;13.070;2023-07-31T03:49:58;14.40;99.90
12815;DHT22;6472;52.328;13.070;2023-07-31T03:52:26;14.50;99.90
12815;DHT22;6472;52.328;13.070;2023-07-31T03:54:53;14.40;99.90
12815;DHT22;6472;52.328;13.070;2023-07-31T03:57:21;14.50;99.90
12815;DHT22;6472;52.328;13.070;2023-07-31T03:59:52;14.60;99.90
12815;DHT22;6472;52.328;13.070;2023-07-31T04:02:20;14.40;99.90
12815;DHT22;6472;52.328;13.070;2023-07-31T04:04:48;14.50;99.90
12815;DHT22;6472;52.328;13.070;2023-07-31T04:07:16;14.50;99.90
12815;DHT22;6472;52.328;13.070;2023-07-31T04:09:44;14.60;99.90
12815;DHT22;6472;52.328;13.070;2023-07-31T04:12:12;14.50;99.90
12815;DHT22;6472;52.328;13.070;2023-07-31T04:14:40;14.60;99.90
12815;DHT22;6472;52.328;13.070;2023-07-31T04:17:10;14.60;99.90
12815;DHT22;6472;52.328;13.070;2023-07-31T04:19:38;14.60;99.90
12815;DHT22;6472;52.328;13.070;2023-07-31T04:22:06;14.60;99.90
12815;DHT22;6472;52.328;13.070;2023-07-31T04:24:34;14.70;99.90
12815;DHT22;6472;52.328;13.070;2023-07-31T04:27:02;14.70;99.90
12815;DHT22;6472;52.328;13.070;2023-07-31T04:29:30;14.80;99.90
12815;DHT22;6472;52.328;13.070;2023-07-31T04:31:58;14.80;99.90
12815;DHT22;6472;52.328;13.070;2023-07-31T04:34:28;14.80;99.90
12815;DHT22;6472;52.328;13.070;2023-07-31T04:36:56;14.90;99.90
12815;DHT22;6472;52.328;13.070;2023-07-31T04:39:24;14.90;99.90
12815;DHT22;6472;52.328;13.070;2023-07-31T04:41:52;14.90;99.90
12815;DHT22;6472;52.328;13.070;2023-07-31T04:44:20;15.00;99.90
12815;DHT22;6472;52.328;13.070;2023-07-31T04:46:48;15.00;99.90
12815;DHT22;6472;52.328;13.070;2023-07-31T04:49:16;15.00;99.90
12815;DHT22;6472;52.328;13.070;2023-07-31T04:51:45;15.10;99.90
12815;DHT22;6472;52.328;13.070;2023-07-31T04:54:13;15.10;99.90
12815;DHT22;6472;52.328;13.070;2023-07-31T04:56:41;15.10;99.90
12815;DHT22;6472;52.328;13.070;2023-07-31T04:59:09;15.10;99.90
12815;DHT22;6472;52.328;13.070;2023-07-31T05:01:37;15.10;99.90
12815;DHT22;6472;52.328;13.070;2023-07-31T05:04:05;15.20;99.90
12815;DHT22;6472;52.328;13.070;2023-07-31T05:06:33;15.20;99.90
12815;DHT22;6472;52.328;13.070;2023-07-31T05:09:03;15.20;99.90
12815;DHT22;6472;52.328;13.070;2023-07-31T05:11:31;15.20;99.90
12815;DHT22;6472;52.328;13.070;2023-07-31T05:13:59;15.20;99.90
12815;DHT22;6472;52.328;13.070;2023-07-31T05:16:27;15.20;99.90
12815;DHT22;6472;52.328;13.070;2023-07-31T05:18:56;15.20;99.90
12815;DHT22;6472;52.328;13.070;2023-07-31T05:21:24;15.40;99.90
12815;DHT22;6472;52.328;13.070;2023-07-31T05:23:52;15.30;99.90
12815;DHT22;6472;52.328;13.070;2023-07-31T05:26:21;15.40;99.90
12815;DHT22;6472;52.328;13.070;2023-07-31T05:28:49;15.40;99.90
12815;DHT22;6472;52.328;13.070;2023-07-31T05:31:17;15.40;99.90
12815;DHT22;6472;52.328;13.070;2023-07-31T05:33:45;15.40;99.90
12815;DHT22;6472;52.328;13.070;2023-07-31T05:36:13;15.50;99.90
12815;DHT22;6472;52.328;13.070;2023-07-31T05:38:41;15.50;99.90
12815;DHT22;6472;52.328;13.070;2023-07-31T05:41:11;15.50;99.90
12815;DHT22;6472;52.328;13.070;2023-07-31T05:43:40;15.50;99.90
12815;DHT22;6472;52.328;13.070;2023-07-31T05:46:09;15.60;99.90
12815;DHT22;6472;52.328;13.070;2023-07-31T05:48:38;15.60;99.90
12815;DHT22;6472;52.328;13.070;2023-07-31T05:51:06;15.60;99.90
12815;DHT22;6472;52.328;13.070;2023-07-31T05:53:34;15.70;99.90
12815;DHT22;6472;52.328;13.070;2023-07-31T05:56:07;15.70;99.90
12815;DHT22;6472;52.328;13.070;2023-07-31T05:58:35;15.80;99.90
12815;DHT22;6472;52.328;13.070;2023-07-31T06:01:04;15.90;99.90
12815;DHT22;6472;52.328;13.070;2023-07-31T06:03:32;15.90;99.90
12815;DHT22;6472;52.328;13.070;2023-07-31T06:06:00;16.00;99.90
12815;DHT22;6472;52.328;13.070;2023-07-31T06:08:28;16.10;99.90
12815;DHT22;6472;52.328;13.070;2023-07-31T06:10:57;16.10;99.90
12815;DHT22;6472;52.328;13.070;2023-07-31T06:13:25;16.20;99.90
12815;DHT22;6472;52.328;13.070;2023-07-31T06:15:53;16.30;99.90
12815;DHT22;6472;52.328;13.070;2023-07-31T06:18:22;16.30;99.90
12815;DHT22;6472;52.328;13.070;2023-07-31T06:20:51;16.40;99.90
12815;DHT22;6472;52.328;13.070;2023-07-31T06:23:20;16.40;99.90
12815;DHT22;6472;52.328;13.070;2023-07-31T06:25:48;16.50;99.90
12815;DHT22;6472;52.328;13.070;2023-07-31T06:28:16;16.50;99.90
12815;DHT22;6472;52.328;13.070;2023-07-31T06:30:44;16.70;99.90
12815;DHT22;6472;52.328;13.070;2023-07-31T06:33:12;16.70;99.90
12815;DHT22;6472;52.328;13.070;2023-07-31T06:35:42;16.70;99.90
12815;DHT22;6472;52.328;13.070;2023-07-31T06:38:10;16.70;99.90
12815;DHT22;6472;52.328;13.070;2023-07-31T06:40:38;16.60;99.90
12815;DHT22;6472;52.328;13.070;2023-07-31T06:43:06;16.60;99.90
12815;DHT22;6472;52.328;13.070;2023-07-31T06:45:36;16.60;99.90
12815;DHT22;6472;52.328;13.070;2023-07-31T06:48:04;16.50;99.90
12815;DHT22;6472;52.328;13.070;2023-07-31T06:50:33;16.50;99.90
12815;DHT22;6472;52.328;13.070;2023-07-31T06:53:02;16.50;99.90
12815;DHT22;6472;52.328;13.070;2023-07-31T06:55:30;16.50;99.90
12815;DHT22;6472;52.328;13.070;2023-07-31T06:57:58;16.50;99.90
12815;DHT22;6472;52.328;13.070;2023-07-31T07:00:27;16.40;99.90
12815;DHT22;6472;52.328;13.070;2023-07-31T07:02:55;16.40;99.90
12815;DHT22;6472;52.328;13.070;2023-07-31T07:05:23;16.40;99.90
12815;DHT22;6472;52.328;13.070;2023-07-31T07:07:51;16.40;99.90
12815;DHT22;6472;52.328;13.070;2023-07-31T07:10:21;16.40;99.90
12815;DHT22;6472;52.328;13.070;2023-07-31T07:12:49;16.30;99.90
12815;DHT22;6472;52.328;13.070;2023-07-31T07:15:17;16.20;99.90
12815;DHT22;6472;52.328;13.070;2023-07-31T07:17:45;16.20;99.90
12815;DHT22;6472;52.328;13.070;2023-07-31T07:20:13;16.20;99.90
12815;DHT22;6472;52.328;13.070;2023-07-31T07:22:42;16.20;99.90
12815;DHT22;6472;52.328;13.070;2023-07-31T07:25:10;16.10;99.90
12815;DHT22;6472;52.328;13.070;2023-07-31T07:27:40;16.10;99.90
12815;DHT22;6472;52.328;13.070;2023-07-31T07:30:08;16.20;99.90
12815;DHT22;6472;52.328;13.070;2023-07-31T07:32:37;16.20;99.90
12815;DHT22;6472;52.328;13.070;2023-07-31T07:35:06;16.30;99.90
12815;DHT22;6472;52.328;13.070;2023-07-31T07:37:34;16.20;99.90
12815;DHT22;6472;52.328;13.070;2023-07-31T07:40:02;16.20;99.90
12815;DHT22;6472;52.328;13.070;2023-07-31T07:42:30;16.30;99.90
12815;DHT22;6472;52.328;13.070;2023-07-31T07:44:59;16.40;99.90
12815;DHT22;6472;52.328;13.070;2023-07-31T07:47:27;16.50;99.90
12815;DHT22;6472;52.328;13.070;2023-07-31T07:49:55;16.50;99.90
12815;DHT22;6472;52.328;13.070;2023-07-31T07:52:23;16.50;99.90
12815;DHT22;6472;52.328;13.070;2023-07-31T07:54:52;16.50;99.90
12815;DHT22;6472;52.328;13.070;2023-07-31T07:57:20;16.60;99.90
12815;DHT22;6472;52.328;13.070;2023-07-31T07:59:48;16.70;99.90
12815;DHT22;6472;52.328;13.070;2023-07-31T08:02:17;16.80;99.90
12815;DHT22;6472;52.328;13.070;2023-07-31T08:04:45;16.90;99.90
12815;DHT22;6472;52.328;13.070;2023-07-31T08:07:13;17.10;99.90
12815;DHT22;6472;52.328;13.070;2023-07-31T08:09:41;17.20;99.90
12815;DHT22;6472;52.328;13.070;2023-07-31T08:12:09;17.30;99.90
12815;DHT22;6472;52.328;13.070;2023-07-31T08:14:37;17.30;99.90
12815;DHT22;6472;52.328;13.070;2023-07-31T08:17:05;17.20;99.90
12815;DHT22;6472;52.328;13.070;2023-07-31T08:19:35;17.10;99.90
12815;DHT22;6472;52.328;13.070;2023-07-31T08:22:03;17.00;99.90
12815;DHT22;6472;52.328;13.070;2023-07-31T08:24:31;17.00;99.90
12815;DHT22;6472;52.328;13.070;2023-07-31T08:26:59;17.10;99.90
12815;DHT22;6472;52.328;13.070;2023-07-31T08:29:27;17.20;99.90
12815;DHT22;6472;52.328;13.070;2023-07-31T08:31:55;17.30;99.90
12815;DHT22;6472;52.328;13.070;2023-07-31T08:34:23;17.30;99.90
12815;DHT22;6472;52.328;13.070;2023-07-31T08:36:53;17.30;99.90
12815;DHT22;6472;52.328;13.070;2023-07-31T08:39:21;17.40;99.90
12815;DHT22;6472;52.328;13.070;2023-07-31T08:41:48;17.40;99.90
12815;DHT22;6472;52.328;13.070;2023-07-31T08:44:18;17.50;99.90
12815;DHT22;6472;52.328;13.070;2023-07-31T08:46:47;17.40;99.90
12815;DHT22;6472;52.328;13.070;2023-07-31T08:49:17;17.40;99.90
12815;DHT22;6472;52.328;13.070;2023-07-31T08:51:46;17.30;99.90
12815;DHT22;6472;52.328;13.070;2023-07-31T08:54:18;17.30;99.90
12815;DHT22;6472;52.328;13.070;2023-07-31T08:56:46;17.40;99.90
12815;DHT22;6472;52.328;13.070;2023-07-31T08:59:15;17.60;99.90
12815;DHT22;6472;52.328;13.070;2023-07-31T09:01:50;17.70;99.90
12815;DHT22;6472;52.328;13.070;2023-07-31T09:04:22;17.60;99.90
12815;DHT22;6472;52.328;13.070;2023-07-31T09:06:52;17.50;99.90
12815;DHT22;6472;52.328;13.070;2023-07-31T09:09:24;17.50;99.90
12815;DHT22;6472;52.328;13.070;2023-07-31T09:11:52;17.60;99.90
12815;DHT22;6472;52.328;13.070;2023-07-31T09:14:45;17.60;99.90
12815;DHT22;6472;52.328;13.070;2023-07-31T09:18:08;17.70;99.90
12815;DHT22;6472;52.328;13.070;2023-07-31T09:20:37;17.70;99.90
12815;DHT22;6472;52.328;13.070;2023-07-31T09:23:06;17.80;99.90
12815;DHT22;6472;52.328;13.070;2023-07-31T09:25:38;17.80;99.90
12815;DHT22;6472;52.328;13.070;2023-07-31T09:28:08;17.80;99.90
12815;DHT22;6472;52.328;13.070;2023-07-31T09:30:46;17.90;99.90
12815;DHT22;6472;52.328;13.070;2023-07-31T09:33:16;18.00;99.90
12815;DHT22;6472;52.328;13.070;2023-07-31T09:35:44;18.00;99.90
12815;DHT22;6472;52.328;13.070;2023-07-31T09:38:14;18.10;99.90
12815;DHT22;6472;52.328;13.070;2023-07-31T09:40:44;18.10;99.90
12815;DHT22;6472;52.328;13.070;2023-07-31T09:43:17;18.00;99.90
12815;DHT22;6472;52.328;13.070;2023-07-31T09:45:46;17.90;99.90
12815;DHT22;6472;52.328;13.070;2023-07-31T09:48:15;17.80;99.90
12815;DHT22;6472;52.328;13.070;2023-07-31T09:50:45;17.70;99.90
12815;DHT22;6472;52.328;13.070;2023-07-31T09:53:14;17.70;99.90
12815;DHT22;6472;52.328;13.070;2023-07-31T09:55:44;17.70;99.90
12815;DHT22;6472;52.328;13.070;2023-07-31T09:58:13;17.70;99.90
12815;DHT22;6472;52.328;13.070;2023-07-31T10:00:41;17.60;99.90
12815;DHT22;6472;52.328;13.070;2023-07-31T10:03:10;17.60;99.90
12815;DHT22;6472;52.328;13.070;2023-07-31T10:05:42;17.60;99.90
12815;DHT22;6472;52.328;13.070;2023-07-31T10:08:13;17.60;99.90
12815;DHT22;6472;52.328;13.070;2023-07-31T10:10:44;17.70;99.90
12815;DHT22;6472;52.328;13.070;2023-07-31T10:13:14;17.80;99.90
12815;DHT22;6472;52.328;13.070;2023-07-31T10:15:43;17.90;99.90
12815;DHT22;6472;52.328;13.070;2023-07-31T10:18:11;18.00;99.90
12815;DHT22;6472;52.328;13.070;2023-07-31T10:20:40;18.30;99.90
12815;DHT22;6472;52.328;13.070;2023-07-31T10:23:09;18.60;99.90
12815;DHT22;6472;52.328;13.070;2023-07-31T10:25:38;18.90;99.90
12815;DHT22;6472;52.328;13.070;2023-07-31T10:28:08;19.20;99.90
12815;DHT22;6472;52.328;13.070;2023-07-31T10:30:37;19.40;99.90
12815;DHT22;6472;52.328;13.070;2023-07-31T10:33:07;19.70;99.90
12815;DHT22;6472;52.328;13.070;2023-07-31T10:35:35;20.00;99.90
12815;DHT22;6472;52.328;13.070;2023-07-31T10:38:09;20.20;99.90
12815;DHT22;6472;52.328;13.070;2023-07-31T10:40:38;20.20;99.90
12815;DHT22;6472;52.328;13.070;2023-07-31T10:43:08;20.20;99.90
12815;DHT22;6472;52.328;13.070;2023-07-31T10:45:39;20.30;99.90
12815;DHT22;6472;52.328;13.070;2023-07-31T10:48:12;20.50;99.90
12815;DHT22;6472;52.328;13.070;2023-07-31T10:50:47;20.50;99.90
12815;DHT22;6472;52.328;13.070;2023-07-31T10:53:23;20.60;99.90
12815;DHT22;6472;52.328;13.070;2023-07-31T10:55:52;20.50;99.90
12815;DHT22;6472;52.328;13.070;2023-07-31T10:58:22;20.40;99.90
12815;DHT22;6472;52.328;13.070;2023-07-31T11:00:50;20.40;99.90
12815;DHT22;6472;52.328;13.070;2023-07-31T11:03:25;20.50;99.90
12815;DHT22;6472;52.328;13.070;2023-07-31T11:06:00;20.50;99.90
12815;DHT22;6472;52.328;13.070;2023-07-31T11:08:31;20.60;99.90
12815;DHT22;6472;52.328;13.070;2023-07-31T11:11:07;20.60;99.90
12815;DHT22;6472;52.328;13.070;2023-07-31T11:13:43;20.50;99.90
12815;DHT22;6472;52.328;13.070;2023-07-31T11:16:12;20.60;99.90
12815;DHT22;6472;52.328;13.070;2023-07-31T11:18:41;20.60;99.90
12815;DHT22;6472;52.328;13.070;2023-07-31T11:21:12;20.50;99.90
12815;DHT22;6472;52.328;13.070;2023-07-31T11:23:41;20.60;99.90
12815;DHT22;6472;52.328;13.070;2023-07-31T11:26:09;20.70;99.90
12815;DHT22;6472;52.328;13.070;2023-07-31T11:28:38;20.70;99.90
12815;DHT22;6472;52.328;13.070;2023-07-31T11:31:10;20.70;99.90
12815;DHT22;6472;52.328;13.070;2023-07-31T11:33:38;20.60;99.90
12815;DHT22;6472;52.328;13.070;2023-07-31T11:36:10;20.40;99.90
12815;DHT22;6472;52.328;13.070;2023-07-31T11:38:41;20.30;99.90
12815;DHT22;6472;52.328;13.070;2023-07-31T11:41:09;20.10;99.90
12815;DHT22;6472;52.328;13.070;2023-07-31T11:43:37;20.00;99.90
12815;DHT22;6472;52.328;13.070;2023-07-31T11:46:06;19.90;99.90
12815;DHT22;6472;52.328;13.070;2023-07-31T11:48:36;20.00;99.90
12815;DHT22;6472;52.328;13.070;2023-07-31T11:51:07;20.10;99.90
12815;DHT22;6472;52.328;13.070;2023-07-31T11:53:40;20.20;99.90
12815;DHT22;6472;52.328;13.070;2023-07-31T11:56:11;20.20;99.90
12815;DHT22;6472;52.328;13.070;2023-07-31T11:58:40;20.30;99.90
12815;DHT22;6472;52.328;13.070;2023-07-31T12:01:09;20.30;99.90
12815;DHT22;6472;52.328;13.070;2023-07-31T12:03:39;20.30;99.90
12815;DHT22;6472;52.328;13.070;2023-07-31T12:06:09;20.30;99.90
12815;DHT22;6472;52.328;13.070;2023-07-31T12:08:37;20.10;99.90
12815;DHT22;6472;52.328;13.070;2023-07-31T12:11:07;20.10;99.90
12815;DHT22;6472;52.328;13.070;2023-07-31T12:13:36;20.10;99.90
12815;DHT22;6472;52.328;13.070;2023-07-31T12:16:04;20.00;99.90
12815;DHT22;6472;52.328;13.070;2023-07-31T12:18:34;20.10;99.90
12815;DHT22;6472;52.328;13.070;2023-07-31T12:21:05;20.10;99.90
12815;DHT22;6472;52.328;13.070;2023-07-31T12:23:35;20.10;99.90
12815;DHT22;6472;52.328;13.070;2023-07-31T12:26:06;20.20;99.90
12815;DHT22;6472;52.328;13.070;2023-07-31T12:28:38;20.20;99.90
12815;DHT22;6472;52.328;13.070;2023-07-31T12:31:09;20.30;99.90
12815;DHT22;6472;52.328;13.070;2023-07-31T12:33:39;20.60;99.90
12815;DHT22;6472;52.328;13.070;2023-07-31T12:36:10;20.70;99.90
12815;DHT22;6472;52.328;13.070;2023-07-31T12:38:39;20.90;99.90
12815;DHT22;6472;52.328;13.070;2023-07-31T12:41:07;21.10;99.90
12815;DHT22;6472;52.328;13.070;2023-07-31T12:43:37;21.30;99.90
12815;DHT22;6472;52.328;13.070;2023-07-31T12:46:06;21.40;99.90
12815;DHT22;6472;52.328;13.070;2023-07-31T12:48:36;21.40;99.90
12815;DHT22;6472;52.328;13.070;2023-07-31T12:51:05;21.30;99.90
12815;DHT22;6472;52.328;13.070;2023-07-31T12:53:36;21.20;99.90
12815;DHT22;6472;52.328;13.070;2023-07-31T12:56:04;21.10;99.90
12815;DHT22;6472;52.328;13.070;2023-07-31T12:58:32;21.10;99.90
12815;DHT22;6472;52.328;13.070;2023-07-31T13:01:00;21.20;99.90
12815;DHT22;6472;52.328;13.070;2023-07-31T13:03:29;21.00;99.90
12815;DHT22;6472;52.328;13.070;2023-07-31T13:05:57;21.00;99.90
12815;DHT22;6472;52.328;13.070;2023-07-31T13:08:25;20.90;99.90
12815;DHT22;6472;52.328;13.070;2023-07-31T13:10:54;20.90;99.90
12815;DHT22;6472;52.328;13.070;2023-07-31T13:13:23;21.00;99.90
12815;DHT22;6472;52.328;13.070;2023-07-31T13:15:51;21.10;99.90
12815;DHT22;6472;52.328;13.070;2023-07-31T13:18:19;21.20;99.90
12815;DHT22;6472;52.328;13.070;2023-07-31T13:20:47;21.40;99.90
12815;DHT22;6472;52.328;13.070;2023-07-31T13:23:15;21.60;99.90
12815;DHT22;6472;52.328;13.070;2023-07-31T13:25:43;21.70;99.90
12815;DHT22;6472;52.328;13.070;2023-07-31T13:28:13;21.80;99.90
12815;DHT22;6472;52.328;13.070;2023-07-31T13:30:41;21.70;99.90
12815;DHT22;6472;52.328;13.070;2023-07-31T13:33:09;21.70;99.90
12815;DHT22;6472;52.328;13.070;2023-07-31T13:35:57;21.80;99.90
12815;DHT22;6472;52.328;13.070;2023-07-31T13:38:25;21.80;99.90
12815;DHT22;6472;52.328;13.070;2023-07-31T13:40:53;21.80;99.90
12815;DHT22;6472;52.328;13.070;2023-07-31T13:43:22;21.90;99.90
12815;DHT22;6472;52.328;13.070;2023-07-31T13:45:51;22.00;99.90
12815;DHT22;6472;52.328;13.070;2023-07-31T13:48:19;22.00;99.90
12815;DHT22;6472;52.328;13.070;2023-07-31T13:50:47;22.10;99.90
12815;DHT22;6472;52.328;13.070;2023-07-31T13:53:15;22.20;99.90
12815;DHT22;6472;52.328;13.070;2023-07-31T13:55:43;22.10;99.90
12815;DHT22;6472;52.328;13.070;2023-07-31T13:58:12;22.10;99.90
12815;DHT22;6472;52.328;13.070;2023-07-31T14:00:41;22.10;99.90
12815;DHT22;6472;52.328;13.070;2023-07-31T14:03:09;22.10;99.90
12815;DHT22;6472;52.328;13.070;2023-07-31T14:05:39;21.90;99.90
12815;DHT22;6472;52.328;13.070;2023-07-31T14:08:07;21.80;99.90
12815;DHT22;6472;52.328;13.070;2023-07-31T14:10:34;21.90;99.90
12815;DHT22;6472;52.328;13.070;2023-07-31T14:13:03;21.90;99.90
12815;DHT22;6472;52.328;13.070;2023-07-31T14:15:31;21.90;99.90
12815;DHT22;6472;52.328;13.070;2023-07-31T14:18:04;22.00;99.90
12815;DHT22;6472;52.328;13.070;2023-07-31T14:20:32;21.90;99.90
12815;DHT22;6472;52.328;13.070;2023-07-31T14:23:00;21.80;99.90
12815;DHT22;6472;52.328;13.070;2023-07-31T14:25:28;21.70;99.90
12815;DHT22;6472;52.328;13.070;2023-07-31T14:27:56;21.70;99.90
12815;DHT22;6472;52.328;13.070;2023-07-31T14:30:24;21.50;99.90
12815;DHT22;6472;52.328;13.070;2023-07-31T14:32:52;21.40;99.90
12815;DHT22;6472;52.328;13.070;2023-07-31T14:35:22;21.50;99.90
12815;DHT22;6472;52.328;13.070;2023-07-31T14:37:50;21.30;99.90
12815;DHT22;6472;52.328;13.070;2023-07-31T14:40:18;21.30;99.90
12815;DHT22;6472;52.328;13.070;2023-07-31T14:42:46;21.20;99.90
12815;DHT22;6472;52.328;13.070;2023-07-31T14:45:14;21.10;99.90
12815;DHT22;6472;52.328;13.070;2023-07-31T14:47:42;21.00;99.90
12815;DHT22;6472;52.328;13.070;2023-07-31T14:50:10;20.90;99.90
12815;DHT22;6472;52.328;13.070;2023-07-31T14:52:40;20.90;99.90
12815;DHT22;6472;52.328;13.070;2023-07-31T14:55:08;20.80;99.90
12815;DHT22;6472;52.328;13.070;2023-07-31T14:57:36;20.60;99.90
12815;DHT22;6472;52.328;13.070;2023-07-31T15:00:05;20.60;99.90
12815;DHT22;6472;52.328;13.070;2023-07-31T15:02:34;20.70;99.90
12815;DHT22;6472;52.328;13.070;2023-07-31T15:05:03;20.80;99.90
12815;DHT22;6472;52.328;13.070;2023-07-31T15:07:32;20.80;99.90
12815;DHT22;6472;52.328;13.070;2023-07-31T15:10:01;20.90;99.90
12815;DHT22;6472;52.328;13.070;2023-07-31T15:12:30;21.00;99.90
12815;DHT22;6472;52.328;13.070;2023-07-31T15:14:58;21.00;99.90
12815;DHT22;6472;52.328;13.070;2023-07-31T15:17:26;21.10;99.90
12815;DHT22;6472;52.328;13.070;2023-07-31T15:19:55;21.10;99.90
12815;DHT22;6472;52.328;13.070;2023-07-31T15:22:23;21.10;99.90
12815;DHT22;6472;52.328;13.070;2023-07-31T15:24:52;21.20;99.90
12815;DHT22;6472;52.328;13.070;2023-07-31T15:27:22;21.40;99.90
12815;DHT22;6472;52.328;13.070;2023-07-31T15:29:50;21.40;99.90
12815;DHT22;6472;52.328;13.070;2023-07-31T15:32:19;21.40;99.90
12815;DHT22;6472;52.328;13.070;2023-07-31T15:34:47;21.50;99.90
12815;DHT22;6472;52.328;13.070;2023-07-31T15:37:15;21.80;99.90
12815;DHT22;6472;52.328;13.070;2023-07-31T15:39:44;21.60;99.90
12815;DHT22;6472;52.328;13.070;2023-07-31T15:42:12;21.60;99.90